createdAt,value
2023-05-16T00:01:39.680Z,98312.06
2023-05-16T00:06:43.846Z,98309.81
2023-05-16T00:11:48.314Z,98308.97
2023-05-16T00:16:51.934Z,98307.44
2023-05-16T00:21:56.104Z,98303.91
2023-05-16T00:26:58.828Z,98308.41
2023-05-16T00:32:02.038Z,98312.50
2023-05-16T00:37:06.906Z,98310.97
2023-05-16T00:42:09.599Z,98316.00
2023-05-16T00:47:14.239Z,98316.41
2023-05-16T00:52:19.009Z,98315.16
2023-05-16T00:57:22.219Z,98303.06
2023-05-16T01:02:28.436Z,98312.03
2023-05-16T01:07:32.668Z,98315.03
2023-05-16T01:12:42.815Z,98309.53
2023-05-16T01:17:54.580Z,98313.88
2023-05-16T01:23:13.685Z,98318.38
2023-05-16T01:28:18.093Z,98309.78
2023-05-16T01:33:20.877Z,98309.06
2023-05-16T01:38:27.326Z,98311.75
2023-05-16T01:43:35.456Z,98307.25
2023-05-16T01:48:45.946Z,98311.31
2023-05-16T01:53:51.413Z,98307.94
2023-05-16T01:58:57.045Z,98313.28
2023-05-16T02:04:00.502Z,98322.44
2023-05-16T02:09:03.317Z,98322.16
2023-05-16T02:14:07.459Z,98314.13
2023-05-16T02:19:10.959Z,98312.72
2023-05-16T02:24:14.803Z,98308.38
2023-05-16T02:29:19.667Z,98316.06
2023-05-16T02:34:22.543Z,98319.00
2023-05-16T02:39:25.287Z,98326.56
2023-05-16T02:44:29.375Z,98326.97
2023-05-16T02:49:34.597Z,98329.22
2023-05-16T02:54:37.275Z,98328.78
2023-05-16T02:59:42.034Z,98333.78
2023-05-16T03:04:44.814Z,98328.47
2023-05-16T03:09:47.521Z,98330.41
2023-05-16T03:14:51.811Z,98333.22
2023-05-16T03:19:55.072Z,98328.69
2023-05-16T03:24:57.757Z,98340.47
2023-05-16T03:30:03.018Z,98338.63
2023-05-16T03:35:06.391Z,98341.72
2023-05-16T03:40:11.209Z,98341.13
2023-05-16T03:45:15.353Z,98342.00
2023-05-16T03:50:18.299Z,98356.81
2023-05-16T03:55:21.301Z,98360.19
2023-05-16T04:00:28.097Z,98360.84
2023-05-16T04:05:33.083Z,98373.59
2023-05-16T04:10:36.766Z,98383.78
2023-05-16T04:15:42.145Z,98373.63
2023-05-16T04:20:47.523Z,98387.94
2023-05-16T04:25:50.656Z,98395.47
2023-05-16T04:30:54.828Z,98394.75
2023-05-16T04:35:58.639Z,98398.06
2023-05-16T04:41:01.910Z,98403.94
2023-05-16T04:46:07.836Z,98403.84
2023-05-16T04:51:10.677Z,98406.75
2023-05-16T04:56:13.661Z,98412.81
2023-05-16T05:01:17.826Z,98427.69
2023-05-16T05:06:21.122Z,98424.16
2023-05-16T05:11:23.896Z,98434.44
2023-05-16T05:16:29.113Z,98432.34
2023-05-16T05:21:33.216Z,98443.16
2023-05-16T05:26:37.636Z,98452.19
2023-05-16T05:31:42.147Z,98453.78
2023-05-16T05:36:46.135Z,98462.22
2023-05-16T05:41:48.895Z,98470.28
2023-05-16T05:46:55.074Z,98479.59
2023-05-16T05:51:58.131Z,98490.38
2023-05-16T05:57:01.050Z,98493.41
2023-05-16T06:02:10.170Z,98503.63
2023-05-16T06:07:16.812Z,98505.63
2023-05-16T06:12:19.585Z,98514.44
2023-05-16T06:17:24.377Z,98528.97
2023-05-16T06:22:27.220Z,98537.50
2023-05-16T06:27:30.243Z,98540.91
2023-05-16T06:32:34.345Z,98547.47
2023-05-16T06:37:37.904Z,98565.66
2023-05-16T06:42:43.013Z,98569.25
2023-05-16T06:47:49.326Z,98576.28
2023-05-16T06:52:52.281Z,98581.66
2023-05-16T06:57:57.893Z,98587.44
2023-05-16T07:03:03.366Z,98587.91
2023-05-16T07:08:08.108Z,98600.25
2023-05-16T07:13:11.057Z,98601.63
2023-05-16T07:18:16.964Z,98604.59
2023-05-16T07:23:19.912Z,98608.25
2023-05-16T07:28:23.675Z,98612.88
2023-05-16T07:33:28.561Z,98617.28
2023-05-16T07:38:31.461Z,98627.41
2023-05-16T07:43:35.343Z,98633.00
2023-05-16T07:48:39.518Z,98628.84
2023-05-16T07:53:43.355Z,98636.50
2023-05-16T07:58:48.954Z,98640.03
2023-05-16T08:03:54.337Z,98643.53
2023-05-16T08:08:57.229Z,98649.06
2023-05-16T08:14:00.301Z,98651.06
2023-05-16T08:19:04.543Z,98645.06
2023-05-16T08:24:08.051Z,98652.84
2023-05-16T08:29:13.936Z,98652.13
2023-05-16T08:34:18.368Z,98655.75
2023-05-16T08:39:22.322Z,98660.09
2023-05-16T08:44:27.003Z,98667.34
2023-05-16T08:49:33.452Z,98674.34
2023-05-16T08:54:37.274Z,98664.84
2023-05-16T08:59:41.906Z,98677.59
2023-05-16T09:04:49.395Z,98672.66
2023-05-16T09:09:52.232Z,98671.47
2023-05-16T09:14:56.399Z,98669.28
2023-05-16T09:20:09.794Z,98674.13
2023-05-16T09:25:28.476Z,98684.91
2023-05-16T09:30:37.432Z,98667.34
2023-05-16T09:35:45.482Z,98666.91
2023-05-16T09:40:51.823Z,98674.28
2023-05-16T09:45:55.514Z,98669.78
2023-05-16T09:51:04.116Z,98677.47
2023-05-16T09:56:08.664Z,98669.19
2023-05-16T10:01:12.785Z,98670.53
2023-05-16T10:06:20.461Z,98658.84
2023-05-16T10:11:28.112Z,98672.34
2023-05-16T10:16:31.724Z,98660.41
2023-05-16T10:21:38.643Z,98660.63
2023-05-16T10:26:41.474Z,98657.53
2023-05-16T10:31:47.048Z,98659.22
2023-05-16T10:36:54.019Z,98660.72
2023-05-16T10:41:57.436Z,98651.53
2023-05-16T10:47:00.859Z,98648.03
2023-05-16T10:52:09.815Z,98651.09
2023-05-16T10:57:17.455Z,98644.66
2023-05-16T11:02:27.517Z,98642.94
2023-05-16T11:07:34.543Z,98642.41
2023-05-16T11:12:45.039Z,98655.50
2023-05-16T11:17:48.350Z,98657.88
2023-05-16T11:22:53.452Z,98651.84
2023-05-16T11:27:57.398Z,98660.72
2023-05-16T11:33:01.539Z,98666.69
2023-05-16T11:38:05.923Z,98645.81
2023-05-16T11:43:08.820Z,98648.38
2023-05-16T11:48:16.586Z,98662.06
2023-05-16T11:53:26.520Z,98646.38
2023-05-16T11:58:29.808Z,98649.69
2023-05-16T12:03:35.812Z,98653.38
2023-05-16T12:08:40.390Z,98651.41
2023-05-16T12:13:43.311Z,98659.81
2023-05-16T12:18:46.577Z,98655.34
2023-05-16T12:23:54.836Z,98663.66
2023-05-16T12:29:00.846Z,98670.75
2023-05-16T12:34:05.957Z,98667.69
2023-05-16T12:39:13.974Z,98666.88
2023-05-16T12:44:20.468Z,98672.13
2023-05-16T12:49:23.474Z,98677.41
2023-05-16T12:54:28.563Z,98677.06
2023-05-16T12:59:31.454Z,98680.47
2023-05-16T13:04:37.072Z,98684.22
2023-05-16T13:09:42.614Z,98690.31
2023-05-16T13:14:46.625Z,98692.00
2023-05-16T13:19:53.576Z,98705.38
2023-05-16T13:24:59.576Z,98701.53
2023-05-16T13:30:03.654Z,98701.41
2023-05-16T13:35:08.265Z,98707.50
2023-05-16T13:40:14.852Z,98705.56
2023-05-16T13:45:18.605Z,98706.66
2023-05-16T13:50:23.179Z,98703.94
2023-05-16T13:55:29.401Z,98708.38
2023-05-16T14:00:44.232Z,98715.41
2023-05-16T14:05:55.988Z,98721.56
2023-05-16T14:11:02.687Z,98706.81
2023-05-16T14:16:06.262Z,98712.56
2023-05-16T14:21:09.209Z,98708.50
2023-05-16T14:26:13.682Z,98707.88
2023-05-16T14:31:18.118Z,98701.53
2023-05-16T14:36:21.456Z,98704.81
2023-05-16T14:41:27.936Z,98705.13
2023-05-16T14:46:31.442Z,98698.47
2023-05-16T14:51:34.691Z,98704.81
2023-05-16T14:56:39.659Z,98698.91
2023-05-16T15:16:09.074Z,98716.03
2023-05-16T15:21:15.587Z,98715.53
2023-05-16T15:26:18.899Z,98732.16
2023-05-16T15:31:22.564Z,98726.97
2023-05-16T15:36:27.186Z,98731.13
2023-05-16T15:41:56.326Z,98729.50
2023-05-16T15:46:52.970Z,98751.41
2023-05-16T15:51:59.812Z,98748.34
2023-05-16T15:57:03.819Z,98756.19
2023-05-16T16:02:07.971Z,98761.28
2023-05-16T16:07:12.686Z,98766.38
2023-05-16T16:12:17.490Z,98767.44
2023-05-16T16:17:21.117Z,98765.59
2023-05-16T16:22:28.108Z,98776.81
2023-05-16T16:27:30.885Z,98766.34
2023-05-16T16:32:33.737Z,98760.88
2023-05-16T16:37:40.653Z,98768.78
2023-05-16T16:42:45.734Z,98773.38
2023-05-16T16:47:50.604Z,98762.84
2023-05-16T16:52:54.901Z,98764.59
2023-05-16T16:57:57.859Z,98754.59
2023-05-16T17:03:00.927Z,98751.50
2023-05-16T17:08:05.877Z,98765.16
2023-05-16T17:13:10.522Z,98762.34
2023-05-16T17:18:14.676Z,98767.72
2023-05-16T17:23:18.933Z,98768.50
2023-05-16T17:28:25.016Z,98770.44
2023-05-16T17:33:28.520Z,98770.97
2023-05-16T17:38:33.228Z,98768.47
2023-05-16T17:43:37.876Z,98780.88
2023-05-16T17:48:40.657Z,98775.44
2023-05-16T17:53:45.346Z,98779.44
2023-05-16T17:58:48.539Z,98784.41
2023-05-16T18:03:51.702Z,98776.31
2023-05-16T18:08:56.939Z,98780.28
2023-05-16T18:13:59.784Z,98785.97
2023-05-16T18:19:04.918Z,98787.38
2023-05-16T18:24:11.460Z,98795.44
2023-05-16T18:29:15.935Z,98801.75
2023-05-16T18:34:20.762Z,98800.81
2023-05-16T18:39:24.957Z,98797.81
2023-05-16T18:44:27.766Z,98805.50
2023-05-16T18:49:33.421Z,98817.66
2023-05-16T18:54:40.865Z,98821.59
2023-05-16T18:59:43.684Z,98828.53
2023-05-16T19:04:47.230Z,98846.72
2023-05-16T19:09:51.991Z,98850.84
2023-05-16T19:14:54.949Z,98859.66
2023-05-16T19:19:58.137Z,98867.63
2023-05-16T19:25:03.032Z,98881.97
2023-05-16T19:30:07.489Z,98885.16
2023-05-16T19:35:11.128Z,98891.13
2023-05-16T19:40:17.268Z,98912.34
2023-05-16T19:45:20.974Z,98903.50
2023-05-16T19:50:23.988Z,98898.53
2023-05-16T19:55:30.508Z,98912.34
2023-05-16T20:00:33.758Z,98917.41
2023-05-16T20:05:37.127Z,98924.53
2023-05-16T20:10:41.457Z,98930.34
2023-05-16T20:15:44.369Z,98933.59
2023-05-16T20:20:47.211Z,98937.66
2023-05-16T20:25:51.359Z,98942.59
2023-05-16T20:30:54.309Z,98947.31
2023-05-16T20:35:58.973Z,98946.00
2023-05-16T20:41:04.614Z,98947.94
2023-05-16T20:46:07.894Z,98951.47
2023-05-16T20:51:10.781Z,98961.94
2023-05-16T20:56:14.884Z,98961.06
2023-05-16T21:01:17.691Z,98958.22
2023-05-16T21:06:20.548Z,98963.16
2023-05-16T21:11:24.982Z,98968.16
2023-05-16T21:16:30.756Z,98963.56
2023-05-16T21:21:33.548Z,98967.91
2023-05-16T21:26:37.804Z,98976.41
2023-05-16T21:31:40.957Z,98978.34
2023-05-16T21:36:43.829Z,98982.06
2023-05-16T21:41:47.957Z,98976.75
2023-05-16T21:46:50.999Z,98984.25
2023-05-16T21:51:53.768Z,98980.59
2023-05-16T21:56:57.842Z,98985.19
2023-05-16T22:02:00.741Z,98992.25
2023-05-16T22:07:04.333Z,98998.38
2023-05-16T22:12:09.295Z,99001.72
2023-05-16T22:17:12.086Z,99003.88
2023-05-16T22:22:14.976Z,99002.13
2023-05-16T22:27:19.063Z,99007.38
2023-05-16T22:32:22.249Z,99003.56
2023-05-16T22:37:25.066Z,99011.63
2023-05-16T22:42:30.383Z,99018.25
2023-05-16T22:47:33.113Z,99015.50
2023-05-16T22:52:40.988Z,99019.00
2023-05-16T22:57:45.528Z,99025.41
2023-05-16T23:02:48.401Z,99022.97
2023-05-16T23:07:51.228Z,99029.84
2023-05-16T23:12:55.415Z,99026.91
2023-05-16T23:17:58.324Z,99024.44
2023-05-16T23:23:01.650Z,99022.91
2023-05-16T23:28:05.927Z,99034.44
2023-05-16T23:33:08.837Z,99028.66
2023-05-16T23:38:11.754Z,99027.03
2023-05-16T23:43:16.407Z,99043.66
2023-05-16T23:48:19.182Z,99033.84
2023-05-16T23:53:27.910Z,99034.31
2023-05-16T23:58:32.036Z,99035.56
